Nenana Municipal Airport
PANN : rendu visible

Aérodrome :











RETROUVEZ-NOUS SUR...

 
LOGIN :

S'inscrire | Disclaimer

   EN    FR    IT 

 









Légende :    VFR   VFR Marginal   IFR   IFR Intensif   IFR Très Intensif
Visi : 
Plafond : 
>= 8 km
>= 3000ft
5 à 8 km
1000 à 3000 ft
1500m à 5 km
500 à 1000 ft
800 à 1500m
200 à 500 ft
< 800m
< 200 ft
Symboles :   Orages  Brouillard  Fortes neiges  Fortes précipitations  Vent > 20 kt






- Altitude de l'aérodrome : 362 ft
- Code IATA : ENN


PANN - Nenana Municipal

DERNIER METAR :
  • 271153Z AUTO 00000KT 10SM CLR M33/M37 A2985 RMK AO2 SLP126 T13281367 11272 21328 52006 TSNO

METARs EXPIRÉS :
  • 271053Z AUTO 00000KT 10SM CLR M33/M37 A2985 RMK AO2 SLP125 T13281367 TSNO
  • 270953Z AUTO 00000KT 10SM CLR M32/M36 A2984 RMK AO2 SLP123 T13171356 TSNO

TAF N/A



MET'MAP, la Météo Aéronautique d'un coup d'oeil ! - Copyright ORBIFLY Décembre 2007 - Disclaimer

ORBIFLY MET'MAP TEAM :

Programmation & Développement : Alexandra Zaïnal
Sur une idée originale de : Baudouin d'Aumeries
Assistance à la programmation : Marc-Olivier Méhu
Soutien technique & logistique : Manuel Goepfert

Contact : metmap@orbifly.com




SOURCES & CREDITS :

   NOAA       Earth
Advisory